Newton, Georgia
Current Conditions -  °F | °C
As of 4:53 AM on Saturday 20 Dec 2014 (Local Time) from KABY Reporting Station
Haze Haze  
Wind Chill: 47°   Ceiling: 3000
Heat Index: 49°   Visibility: 6mi
Dew Point: 45°   Wind: 6mph
Humidity: 86%   Direction: 50°NE
Pressure: 30.12"   Gusts: NA
Location:  31.31°N, 84.34°W
Report Text: KABY 200953Z 05005KT 6SM BR BKN030 BKN040 OVC070 09/07 A3012 RMK AO2 SLP201 T00940072
Loading
Personal Weather Stations






























Interactive Weather Map New forecast layout! Learn more

10-Day Weather Forecast

Advertisements
Track Severe Weather on mobile